echo '';

Nearby METAR Reports

 

ENRY - Rygge (nor-Afb), Norway
Distance from station: NV 23km
Oppdatert: 25/09/2017 00:50
Hovedsaklig skyet
Hovedsaklig skyet
 Vind fra NØ
Vind: NØ 9 km/h
Temperatur: 13°C
Duggpunkt: 12°C
Fuktighet: 94%
Barometer: 1034 hPa
Clouds: Hovedsaklig skyet
Visibility: 10 km
Cloud details: Few Clouds 183 m
Hovedsaklig skyet 945 m
2017/09/24 22:50 ENRY 242250Z 04005KT 9999 FEW006 BKN031 13/12 Q1034
ENTO - Torp (civ/Nor-Af, Norway
Distance from station: V 47km
Oppdatert: 25/09/2017 00:50
Overskyet
Overskyet
 Vind fra NNØ
Vind: NNØ 13 km/h
Temperatur: 13°C
Duggpunkt: 13°C
Fuktighet: 100%
Barometer: 1034 hPa
Clouds: Overskyet
Visibility: 7 km
Cloud details: Few Clouds 122 m
Overskyet 183 m
2017/09/24 22:50 ENTO 242250Z AUTO 02007KT 7000 FEW004/// OVC006/// 13/13 Q1034
 
ENSN - Skien/Geiterygge, Norway
Distance from station: V 87km
Oppdatert: 09/11/2015 09:50
NOT Current
Klart
Klart
 Vind fra SSV
Vind: SSV 19 km/h, Vindkast: 41 km/h
Temperatur: 7°C
Vindkjøling: 4°C
Duggpunkt: 3°C
Fuktighet: 76%
Barometer: 1000 hPa
Oversikt: Klart
Visibility: greater than 10 km
2015/11/09 08:50 ENSN 090850Z 20010G22KT 150V240 CAVOK 07/03 Q1000
ENGM - Oslo/Gardermoen, Norway
Distance from station: 0 107km
Oppdatert: 25/09/2017 00:50
Overskyet
Overskyet
 Vind fra ØNØ
Vind: ØNØ 6 km/h
Temperatur: 13°C
Duggpunkt: 12°C
Fuktighet: 94%
Barometer: 1035 hPa
Clouds: Overskyet
Visibility: 7 km
Cloud details: Overskyet 91 m
2017/09/24 22:50 ENGM 242250Z 07003KT 7000 OVC003 13/12 Q1035
 
ENNO - Notodden, Norway
Distance from station: VNV 112km
Oppdatert: 24/09/2017 18:50
NOT Current
Lett regn, Yr, Overskyet
Lett regn, Yr, Overskyet
 Vind fra varies
Vind: varies 4 km/h
Temperatur: 13°C
Duggpunkt: 13°C
Fuktighet: 100%
Barometer: 1032 hPa
Oversikt: Lett regn, Yr
Clouds: Overskyet
Visibility: 10 km
Cloud details: Hovedsaklig skyet 610 m
Overskyet 762 m
2017/09/24 16:50 ENNO 241650Z VRB02KT 9999 -RADZ BKN020 OVC025 13/13 Q1032
ESGT - Trollhattan (pvt, Sweden
Distance from station: SØ 125km
Oppdatert: 24/09/2017 21:50
NOT Current
Mist, Few clouds
Mist, Few clouds
 Vind fra ØNØ
Vind: ØNØ 11 km/h
Temperatur: 14°C
Duggpunkt: 13°C
Fuktighet: 94%
Barometer: 1032 hPa
Oversikt: Mist
Clouds: Few Clouds
Visibility: 8 km
Cloud details: Few Clouds 914 m
2017/09/24 19:50 ESGT 241950Z 06006KT 8000 BR FEW030 14/13 Q1032
 
ESIB - Satenas (swe-Afb, Sweden
Distance from station: SØ 129km
Oppdatert: 25/09/2017 00:50
Hovedsaklig skyet
Hovedsaklig skyet
 Vind fra NØ
Vind: NØ 11 km/h
Temperatur: 14°C
Duggpunkt: 14°C
Fuktighet: 100%
Barometer: 1032 hPa
Clouds: Hovedsaklig skyet
Visibility: 10 km
Cloud details: Hovedsaklig skyet 579 m
2017/09/24 22:50 ESIB 242250Z 05006KT 9999 BKN019 14/14 Q1032
ESOK - Karlstad North, Sweden
Distance from station: ØNØ 129km
Oppdatert: 25/09/2017 00:50
Overskyet
Overskyet
 Vind fra NØ
Vind: NØ 13 km/h
Temperatur: 13°C
Duggpunkt: 12°C
Fuktighet: 94%
Barometer: 1034 hPa
Clouds: Overskyet
Visibility: 10 km
Cloud details: Overskyet 610 m
2017/09/24 22:50 ESOK 242250Z AUTO 05007KT 9999 OVC020/// 13/12 Q1034
 
ESGP - Goteborg/Save (a, Sweden
Distance from station: SSØ 169km
Oppdatert: 02/01/2017 11:20
NOT Current
Klart
Klart
 Vind fra calm
Vind: Stille
Temperatur: -2°C
Duggpunkt: -4°C
Fuktighet: 86%
Barometer: 1012 hPa
Clouds: Klart
Visibility: 10 km
2017/01/02 10:20 ESGP 021020Z AUTO 00000KT 9999 NCD M02/M04 Q1012
ESGG - Goteborg/Landvet, Sweden
Distance from station: SSØ 188km
Oppdatert: 25/09/2017 00:50
Mist, Hovedsaklig skyet
Mist, Hovedsaklig skyet
 Vind fra NØ
Vind: NØ 11 km/h
Temperatur: 12°C
Duggpunkt: 12°C
Fuktighet: 100%
Barometer: 1031 hPa
Oversikt: Mist
Clouds: Hovedsaklig skyet
Visibility: 9 km
Cloud details: Hovedsaklig skyet 457 m
2017/09/24 22:50 ESGG 242250Z 04006KT 9000 BR BKN015 12/12 Q1031
 
EKSN - Sindal Airport, Denmark
Distance from station: SSV 199km
Oppdatert: 22/09/2017 14:50
NOT Current
Hovedsaklig skyet
Hovedsaklig skyet
 Vind fra ØNØ
Vind: ØNØ 11 km/h
Temperatur: 14°C
Duggpunkt: 10°C
Fuktighet: 77%
Barometer: 1023 hPa
Clouds: Hovedsaklig skyet
Visibility: 10 km
Cloud details: Delvis skyet 488 m
Hovedsaklig skyet 671 m
2017/09/22 12:50 EKSN 221250Z 07006KT 9999 SCT016 BKN022 14/10 Q1023
ENCN - Kristiansand/Kje, Norway
Distance from station: VSV 209km
Oppdatert: 25/09/2017 00:50
Hovedsaklig skyet
Hovedsaklig skyet
 Vind fra ØNØ
Vind: ØNØ 20 km/h
Temperatur: 15°C
Duggpunkt: 13°C
Fuktighet: 88%
Barometer: 1032 hPa
Clouds: Hovedsaklig skyet
Visibility: 10 km
Cloud details: Hovedsaklig skyet 274 m
2017/09/24 22:50 ENCN 242250Z 07011KT 9999 BKN009 15/13 Q1032
 
ENFG - Fagernes/Leirin, Norway
Distance from station: NNV 220km
Oppdatert: 01/09/2017 16:50
NOT Current
Lett regn, Showers, Hovedsaklig skyet
Lett regn, Showers, Hovedsaklig skyet
 Vind fra NØ
Vind: NØ 15 km/h
Temperatur: 10°C
Vindkjøling: 8°C
Duggpunkt: 2°C
Fuktighet: 58%
Barometer: 1015 hPa
Oversikt: Lett regn, Showers
Clouds: Hovedsaklig skyet
Visibility: 10 km
Cloud details: Hovedsaklig skyet 1372 m
2017/09/01 14:50 ENFG 011450Z 05008KT 9999 -SHRA BKN045 10/02 Q1015
ESOE - Orebro (private), Sweden
Distance from station: Ø 225km
Oppdatert: 25/09/2017 00:50
Hovedsaklig skyet
Hovedsaklig skyet
 Vind fra ØNØ
Vind: ØNØ 15 km/h
Temperatur: 15°C
Duggpunkt: 14°C
Fuktighet: 94%
Barometer: 1034 hPa
Clouds: Hovedsaklig skyet
Visibility: 10 km
Cloud details: Hovedsaklig skyet 244 m
2017/09/24 22:50 ESOE 242250Z 06008KT 9999 BKN008 15/14 Q1034
 
ESGJ - Jonkoping Airpor, Sweden
Distance from station: SØ 238km
Oppdatert: 25/09/2017 00:50
Hovedsaklig skyet
Hovedsaklig skyet
 Vind fra ØNØ
Vind: ØNØ 13 km/h
Temperatur: 14°C
Duggpunkt: 12°C
Fuktighet: 88%
Barometer: 1032 hPa
Clouds: Hovedsaklig skyet
Visibility: 10 km
Cloud details: Hovedsaklig skyet 366 m
2017/09/24 22:50 ESGJ 242250Z 06007KT 9999 BKN012 14/12 Q1032
EKYT - Alborg, Denmark
Distance from station: SSV 248km
Oppdatert: 25/09/2017 00:50
Klart
Klart
 Vind fra NØ
Vind: NØ 9 km/h
Temperatur: 14°C
Duggpunkt: 13°C
Fuktighet: 94%
Barometer: 1030 hPa
Clouds: Klart
Visibility: 16 miles
2017/09/24 22:50 EKYT 242250Z AUTO 04005KT 9999NDV NCD 14/13 Q1030
 
ESCF - Linkoping/Malmen, Sweden
Distance from station: ØSØ 272km
Oppdatert: 25/09/2017 00:20
Hovedsaklig skyet
Hovedsaklig skyet
 Vind fra ØNØ
Vind: ØNØ 13 km/h
Temperatur: 14°C
Duggpunkt: 12°C
Fuktighet: 88%
Barometer: 1033 hPa
Clouds: Hovedsaklig skyet
Visibility: 10 km
Cloud details: Few Clouds 305 m
Hovedsaklig skyet 427 m
2017/09/24 22:20 ESCF 242220Z 06007KT 9999 FEW010 BKN014 14/12 Q1033
ESSD - Borlange (swe-Af, Sweden
Distance from station: ØNØ 279km
Oppdatert: 25/09/2017 00:50
Overskyet
Overskyet
 Vind fra NØ
Vind: NØ 6 km/h
Temperatur: 12°C
Duggpunkt: 11°C
Fuktighet: 94%
Barometer: 1036 hPa
Clouds: Overskyet
Visibility: 10 km
Cloud details: Overskyet 244 m
2017/09/24 22:50 ESSD 242250Z AUTO 04003KT 9999 OVC008/// 12/11 Q1036
 
ESSL - Linkoping/Saab, Sweden
Distance from station: ØSØ 280km
Oppdatert: 25/09/2017 00:50
Overskyet
Overskyet
 Vind fra NØ
Vind: NØ 9 km/h
Temperatur: 13°C
Duggpunkt: 12°C
Fuktighet: 94%
Barometer: 1033 hPa
Clouds: Overskyet
Visibility: 10 km
Cloud details: Overskyet 396 m
2017/09/24 22:50 ESSL 242250Z AUTO 05005KT 9999 OVC013/// 13/12 Q1033
ESMT - Halmstad (swe-Af, Sweden
Distance from station: SSØ 303km
Oppdatert: 25/09/2017 00:50
Klart
Klart
 Vind fra ØNØ
Vind: ØNØ 11 km/h
Temperatur: 15°C
Duggpunkt: 13°C
Fuktighet: 88%
Barometer: 1029 hPa
Clouds: Klart
Visibility: 10 km
2017/09/24 22:50 ESMT 242250Z AUTO 07006KT 9999 NCD 15/13 Q1029